sensor_id;sensor_type;location;lat;lon;timestamp;temperature;humidity
13673;DHT22;6909;52.202;9.876;2022-11-21T00:00:11;-0.30;99.90
13673;DHT22;6909;52.202;9.876;2022-11-21T00:02:38;-0.40;99.90
13673;DHT22;6909;52.202;9.876;2022-11-21T00:05:05;-0.40;99.90
13673;DHT22;6909;52.202;9.876;2022-11-21T00:07:35;-0.40;99.90
13673;DHT22;6909;52.202;9.876;2022-11-21T00:10:03;-0.40;99.90
13673;DHT22;6909;52.202;9.876;2022-11-21T00:12:29;-0.50;99.90
13673;DHT22;6909;52.202;9.876;2022-11-21T00:14:56;-0.40;99.90
13673;DHT22;6909;52.202;9.876;2022-11-21T00:17:24;-0.40;99.90
13673;DHT22;6909;52.202;9.876;2022-11-21T00:19:51;-0.30;99.90
13673;DHT22;6909;52.202;9.876;2022-11-21T00:22:18;-0.40;99.90
13673;DHT22;6909;52.202;9.876;2022-11-21T00:24:44;-0.40;99.90
13673;DHT22;6909;52.202;9.876;2022-11-21T00:27:11;-0.50;99.90
13673;DHT22;6909;52.202;9.876;2022-11-21T00:29:38;-0.50;99.90
13673;DHT22;6909;52.202;9.876;2022-11-21T00:32:04;-0.50;99.90
13673;DHT22;6909;52.202;9.876;2022-11-21T00:34:32;-0.60;99.90
13673;DHT22;6909;52.202;9.876;2022-11-21T00:36:59;-0.60;99.90
13673;DHT22;6909;52.202;9.876;2022-11-21T00:39:26;-0.50;99.90
13673;DHT22;6909;52.202;9.876;2022-11-21T00:41:53;-0.50;99.90
13673;DHT22;6909;52.202;9.876;2022-11-21T00:44:20;-0.50;99.90
13673;DHT22;6909;52.202;9.876;2022-11-21T00:46:46;-0.50;99.90
13673;DHT22;6909;52.202;9.876;2022-11-21T00:49:13;-0.50;99.90
13673;DHT22;6909;52.202;9.876;2022-11-21T00:51:41;-0.50;99.90
13673;DHT22;6909;52.202;9.876;2022-11-21T00:54:08;-0.50;99.90
13673;DHT22;6909;52.202;9.876;2022-11-21T00:56:35;-0.50;99.90
13673;DHT22;6909;52.202;9.876;2022-11-21T00:59:02;-0.50;99.90
13673;DHT22;6909;52.202;9.876;2022-11-21T01:01:28;-0.50;99.90
13673;DHT22;6909;52.202;9.876;2022-11-21T01:03:56;-0.60;99.90
13673;DHT22;6909;52.202;9.876;2022-11-21T01:06:23;-0.60;99.90
13673;DHT22;6909;52.202;9.876;2022-11-21T01:08:51;-0.60;99.90
13673;DHT22;6909;52.202;9.876;2022-11-21T01:11:19;-0.60;99.90
13673;DHT22;6909;52.202;9.876;2022-11-21T01:13:47;-0.50;99.90
13673;DHT22;6909;52.202;9.876;2022-11-21T01:16:15;-0.50;99.90
13673;DHT22;6909;52.202;9.876;2022-11-21T01:18:43;-0.50;99.90
13673;DHT22;6909;52.202;9.876;2022-11-21T01:21:13;-0.50;99.90
13673;DHT22;6909;52.202;9.876;2022-11-21T01:23:40;-0.40;99.90
13673;DHT22;6909;52.202;9.876;2022-11-21T01:26:10;-0.40;99.90
13673;DHT22;6909;52.202;9.876;2022-11-21T01:28:37;-0.40;99.90
13673;DHT22;6909;52.202;9.876;2022-11-21T01:31:05;-0.40;99.90
13673;DHT22;6909;52.202;9.876;2022-11-21T01:33:32;-0.40;99.90
13673;DHT22;6909;52.202;9.876;2022-11-21T01:36:05;-0.50;99.90
13673;DHT22;6909;52.202;9.876;2022-11-21T01:38:32;-0.40;99.90
13673;DHT22;6909;52.202;9.876;2022-11-21T01:40:59;-0.40;99.90
13673;DHT22;6909;52.202;9.876;2022-11-21T01:43:27;-0.40;99.90
13673;DHT22;6909;52.202;9.876;2022-11-21T01:45:56;-0.30;99.90
13673;DHT22;6909;52.202;9.876;2022-11-21T01:48:27;-0.30;99.90
13673;DHT22;6909;52.202;9.876;2022-11-21T01:50:56;-0.30;99.90
13673;DHT22;6909;52.202;9.876;2022-11-21T01:53:24;-0.30;99.90
13673;DHT22;6909;52.202;9.876;2022-11-21T01:55:51;-0.30;99.90
13673;DHT22;6909;52.202;9.876;2022-11-21T01:58:19;-0.30;99.90
13673;DHT22;6909;52.202;9.876;2022-11-21T02:00:49;-0.30;99.90
13673;DHT22;6909;52.202;9.876;2022-11-21T02:03:19;-0.30;99.90
13673;DHT22;6909;52.202;9.876;2022-11-21T02:05:46;-0.20;99.90
13673;DHT22;6909;52.202;9.876;2022-11-21T02:08:17;-0.20;99.90
13673;DHT22;6909;52.202;9.876;2022-11-21T02:10:49;-0.20;99.90
13673;DHT22;6909;52.202;9.876;2022-11-21T02:13:20;-0.20;99.90
13673;DHT22;6909;52.202;9.876;2022-11-21T02:15:49;-0.20;99.90
13673;DHT22;6909;52.202;9.876;2022-11-21T02:18:16;-0.20;99.90
13673;DHT22;6909;52.202;9.876;2022-11-21T02:20:45;-0.20;99.90
13673;DHT22;6909;52.202;9.876;2022-11-21T02:23:20;-0.20;99.90
13673;DHT22;6909;52.202;9.876;2022-11-21T02:25:50;-0.20;99.90
13673;DHT22;6909;52.202;9.876;2022-11-21T02:28:20;-0.20;99.90
13673;DHT22;6909;52.202;9.876;2022-11-21T02:30:49;-0.30;99.90
13673;DHT22;6909;52.202;9.876;2022-11-21T02:33:16;-0.30;99.90
13673;DHT22;6909;52.202;9.876;2022-11-21T02:35:42;-0.30;99.90
13673;DHT22;6909;52.202;9.876;2022-11-21T02:38:15;-0.30;99.90
13673;DHT22;6909;52.202;9.876;2022-11-21T02:40:47;-0.30;99.90
13673;DHT22;6909;52.202;9.876;2022-11-21T02:43:21;-0.40;99.90
13673;DHT22;6909;52.202;9.876;2022-11-21T02:45:51;-0.50;99.90
13673;DHT22;6909;52.202;9.876;2022-11-21T02:48:18;-0.60;99.90
13673;DHT22;6909;52.202;9.876;2022-11-21T02:50:45;-0.70;99.90
13673;DHT22;6909;52.202;9.876;2022-11-21T02:53:14;-0.70;99.90
13673;DHT22;6909;52.202;9.876;2022-11-21T02:55:41;-0.80;99.90
13673;DHT22;6909;52.202;9.876;2022-11-21T02:58:09;-0.80;99.90
13673;DHT22;6909;52.202;9.876;2022-11-21T03:00:39;-0.80;99.90
13673;DHT22;6909;52.202;9.876;2022-11-21T03:03:06;-0.80;99.90
13673;DHT22;6909;52.202;9.876;2022-11-21T03:05:33;-0.80;99.90
13673;DHT22;6909;52.202;9.876;2022-11-21T03:08:00;-0.80;99.90
13673;DHT22;6909;52.202;9.876;2022-11-21T03:10:27;-0.70;99.90
13673;DHT22;6909;52.202;9.876;2022-11-21T03:12:54;-0.70;99.90
13673;DHT22;6909;52.202;9.876;2022-11-21T03:15:26;-0.70;99.90
13673;DHT22;6909;52.202;9.876;2022-11-21T03:17:54;-0.60;99.90
13673;DHT22;6909;52.202;9.876;2022-11-21T03:20:21;-0.60;99.90
13673;DHT22;6909;52.202;9.876;2022-11-21T03:22:48;-0.50;99.90
13673;DHT22;6909;52.202;9.876;2022-11-21T03:25:15;-0.50;99.90
13673;DHT22;6909;52.202;9.876;2022-11-21T03:27:42;-0.50;99.90
13673;DHT22;6909;52.202;9.876;2022-11-21T03:30:09;-0.50;99.90
13673;DHT22;6909;52.202;9.876;2022-11-21T03:32:36;-0.40;99.90
13673;DHT22;6909;52.202;9.876;2022-11-21T03:35:05;-0.40;99.90
13673;DHT22;6909;52.202;9.876;2022-11-21T03:37:32;-0.20;99.90
13673;DHT22;6909;52.202;9.876;2022-11-21T03:39:59;-0.20;99.90
13673;DHT22;6909;52.202;9.876;2022-11-21T03:42:26;-0.20;99.90
13673;DHT22;6909;52.202;9.876;2022-11-21T03:45:08;-0.30;99.90
13673;DHT22;6909;52.202;9.876;2022-11-21T03:47:35;-0.20;99.90
13673;DHT22;6909;52.202;9.876;2022-11-21T03:50:02;-0.30;99.90
13673;DHT22;6909;52.202;9.876;2022-11-21T03:52:30;-0.30;99.90
13673;DHT22;6909;52.202;9.876;2022-11-21T03:54:57;-0.30;99.90
13673;DHT22;6909;52.202;9.876;2022-11-21T03:57:24;-0.30;99.90
13673;DHT22;6909;52.202;9.876;2022-11-21T03:59:51;-0.40;99.90
13673;DHT22;6909;52.202;9.876;2022-11-21T04:02:18;-0.40;99.90
13673;DHT22;6909;52.202;9.876;2022-11-21T04:04:44;-0.40;99.90
13673;DHT22;6909;52.202;9.876;2022-11-21T04:07:11;-0.40;99.90
13673;DHT22;6909;52.202;9.876;2022-11-21T04:09:39;-0.60;99.90
13673;DHT22;6909;52.202;9.876;2022-11-21T04:12:06;-0.70;99.90
13673;DHT22;6909;52.202;9.876;2022-11-21T04:14:33;-0.80;99.90
13673;DHT22;6909;52.202;9.876;2022-11-21T04:16:59;-1.00;99.90
13673;DHT22;6909;52.202;9.876;2022-11-21T04:19:26;-1.00;99.90
13673;DHT22;6909;52.202;9.876;2022-11-21T04:21:53;-1.20;99.90
13673;DHT22;6909;52.202;9.876;2022-11-21T04:24:20;-1.20;99.90
13673;DHT22;6909;52.202;9.876;2022-11-21T04:26:48;-1.30;99.90
13673;DHT22;6909;52.202;9.876;2022-11-21T04:29:14;-1.40;99.90
13673;DHT22;6909;52.202;9.876;2022-11-21T04:31:41;-1.50;99.90
13673;DHT22;6909;52.202;9.876;2022-11-21T04:34:08;-1.50;99.90
13673;DHT22;6909;52.202;9.876;2022-11-21T04:36:34;-1.60;99.90
13673;DHT22;6909;52.202;9.876;2022-11-21T04:39:01;-1.60;99.90
13673;DHT22;6909;52.202;9.876;2022-11-21T04:41:28;-1.70;99.90
13673;DHT22;6909;52.202;9.876;2022-11-21T04:43:56;-1.70;99.90
13673;DHT22;6909;52.202;9.876;2022-11-21T04:46:23;-1.80;99.90
13673;DHT22;6909;52.202;9.876;2022-11-21T04:48:49;-1.90;99.90
13673;DHT22;6909;52.202;9.876;2022-11-21T04:51:16;-1.90;99.90
13673;DHT22;6909;52.202;9.876;2022-11-21T04:53:43;-2.00;99.90
13673;DHT22;6909;52.202;9.876;2022-11-21T04:56:09;-2.00;99.90
13673;DHT22;6909;52.202;9.876;2022-11-21T04:58:39;-2.10;99.90
13673;DHT22;6909;52.202;9.876;2022-11-21T05:01:07;-2.10;99.90
13673;DHT22;6909;52.202;9.876;2022-11-21T05:03:34;-2.20;99.90
13673;DHT22;6909;52.202;9.876;2022-11-21T05:06:01;-2.30;99.90
13673;DHT22;6909;52.202;9.876;2022-11-21T05:08:28;-2.30;99.90
13673;DHT22;6909;52.202;9.876;2022-11-21T05:10:55;-2.30;99.90
13673;DHT22;6909;52.202;9.876;2022-11-21T05:13:39;-2.40;99.90
13673;DHT22;6909;52.202;9.876;2022-11-21T05:16:07;-2.40;99.90
13673;DHT22;6909;52.202;9.876;2022-11-21T05:18:35;-2.40;99.90
13673;DHT22;6909;52.202;9.876;2022-11-21T05:21:02;-2.50;99.90
13673;DHT22;6909;52.202;9.876;2022-11-21T05:23:29;-2.50;99.90
13673;DHT22;6909;52.202;9.876;2022-11-21T05:25:56;-2.50;99.90
13673;DHT22;6909;52.202;9.876;2022-11-21T05:28:22;-2.50;99.90
13673;DHT22;6909;52.202;9.876;2022-11-21T05:30:49;-2.60;99.90
13673;DHT22;6909;52.202;9.876;2022-11-21T05:33:17;-2.60;99.90
13673;DHT22;6909;52.202;9.876;2022-11-21T05:35:44;-2.60;99.90
13673;DHT22;6909;52.202;9.876;2022-11-21T05:38:11;-2.70;99.90
13673;DHT22;6909;52.202;9.876;2022-11-21T05:40:38;-2.70;99.90
13673;DHT22;6909;52.202;9.876;2022-11-21T05:43:05;-2.70;99.90
13673;DHT22;6909;52.202;9.876;2022-11-21T05:45:49;-2.70;99.90
13673;DHT22;6909;52.202;9.876;2022-11-21T05:48:17;-2.70;99.90
13673;DHT22;6909;52.202;9.876;2022-11-21T05:50:46;-2.70;99.90
13673;DHT22;6909;52.202;9.876;2022-11-21T05:53:14;-2.70;99.90
13673;DHT22;6909;52.202;9.876;2022-11-21T05:55:41;-2.70;99.90
13673;DHT22;6909;52.202;9.876;2022-11-21T05:58:08;-2.60;99.90
13673;DHT22;6909;52.202;9.876;2022-11-21T06:00:35;-2.60;99.90
13673;DHT22;6909;52.202;9.876;2022-11-21T06:03:03;-2.50;99.90
13673;DHT22;6909;52.202;9.876;2022-11-21T06:05:49;-2.40;99.90
13673;DHT22;6909;52.202;9.876;2022-11-21T06:08:32;-2.40;99.90
13673;DHT22;6909;52.202;9.876;2022-11-21T06:10:59;-2.40;99.90
13673;DHT22;6909;52.202;9.876;2022-11-21T06:13:26;-2.40;99.90
13673;DHT22;6909;52.202;9.876;2022-11-21T06:15:58;-2.30;99.90
13673;DHT22;6909;52.202;9.876;2022-11-21T06:18:25;-2.30;99.90
13673;DHT22;6909;52.202;9.876;2022-11-21T06:20:59;-2.30;99.90
13673;DHT22;6909;52.202;9.876;2022-11-21T06:23:25;-2.20;99.90
13673;DHT22;6909;52.202;9.876;2022-11-21T06:25:55;-2.20;99.90
13673;DHT22;6909;52.202;9.876;2022-11-21T06:28:23;-2.10;99.90
13673;DHT22;6909;52.202;9.876;2022-11-21T06:30:50;-2.20;99.90
13673;DHT22;6909;52.202;9.876;2022-11-21T06:33:17;-2.20;99.90
13673;DHT22;6909;52.202;9.876;2022-11-21T06:35:44;-2.10;99.90
13673;DHT22;6909;52.202;9.876;2022-11-21T06:38:15;-2.10;99.90
13673;DHT22;6909;52.202;9.876;2022-11-21T06:40:43;-2.10;99.90
13673;DHT22;6909;52.202;9.876;2022-11-21T06:43:10;-2.10;99.90
13673;DHT22;6909;52.202;9.876;2022-11-21T06:45:37;-2.20;99.90
13673;DHT22;6909;52.202;9.876;2022-11-21T06:48:04;-2.20;99.90
13673;DHT22;6909;52.202;9.876;2022-11-21T06:50:31;-2.20;99.90
13673;DHT22;6909;52.202;9.876;2022-11-21T06:52:57;-2.20;99.90
13673;DHT22;6909;52.202;9.876;2022-11-21T06:55:26;-2.30;99.90
13673;DHT22;6909;52.202;9.876;2022-11-21T06:57:56;-2.40;99.90
13673;DHT22;6909;52.202;9.876;2022-11-21T07:00:23;-2.50;99.90
13673;DHT22;6909;52.202;9.876;2022-11-21T07:02:50;-2.50;99.90
13673;DHT22;6909;52.202;9.876;2022-11-21T07:05:17;-2.60;99.90
13673;DHT22;6909;52.202;9.876;2022-11-21T07:07:43;-2.60;99.90
13673;DHT22;6909;52.202;9.876;2022-11-21T07:10:10;-2.60;99.90
13673;DHT22;6909;52.202;9.876;2022-11-21T07:12:38;-2.60;99.90
13673;DHT22;6909;52.202;9.876;2022-11-21T07:15:22;-2.50;99.90
13673;DHT22;6909;52.202;9.876;2022-11-21T07:17:49;-2.40;99.90
13673;DHT22;6909;52.202;9.876;2022-11-21T07:20:16;-2.40;99.90
13673;DHT22;6909;52.202;9.876;2022-11-21T07:22:43;-2.50;99.90
13673;DHT22;6909;52.202;9.876;2022-11-21T07:25:09;-2.60;99.90
13673;DHT22;6909;52.202;9.876;2022-11-21T07:27:38;-2.70;99.90
13673;DHT22;6909;52.202;9.876;2022-11-21T07:30:05;-2.30;99.90
13673;DHT22;6909;52.202;9.876;2022-11-21T07:32:32;-1.70;99.90
13673;DHT22;6909;52.202;9.876;2022-11-21T07:34:59;-1.00;99.90
13673;DHT22;6909;52.202;9.876;2022-11-21T07:37:26;-0.50;99.90
13673;DHT22;6909;52.202;9.876;2022-11-21T07:39:52;0.00;99.90
13673;DHT22;6909;52.202;9.876;2022-11-21T07:42:19;0.40;99.90
13673;DHT22;6909;52.202;9.876;2022-11-21T07:44:47;1.10;99.90
13673;DHT22;6909;52.202;9.876;2022-11-21T07:47:14;1.40;99.90
13673;DHT22;6909;52.202;9.876;2022-11-21T07:49:41;1.60;99.90
13673;DHT22;6909;52.202;9.876;2022-11-21T07:52:07;2.00;99.90
13673;DHT22;6909;52.202;9.876;2022-11-21T07:54:34;2.20;99.90
13673;DHT22;6909;52.202;9.876;2022-11-21T07:57:01;2.50;99.90
13673;DHT22;6909;52.202;9.876;2022-11-21T07:59:28;2.20;99.90
13673;DHT22;6909;52.202;9.876;2022-11-21T08:01:56;2.30;99.90
13673;DHT22;6909;52.202;9.876;2022-11-21T08:04:23;2.60;99.90
13673;DHT22;6909;52.202;9.876;2022-11-21T08:06:49;2.30;99.90
13673;DHT22;6909;52.202;9.876;2022-11-21T08:09:16;2.40;99.90
13673;DHT22;6909;52.202;9.876;2022-11-21T08:11:43;2.40;99.90
13673;DHT22;6909;52.202;9.876;2022-11-21T08:14:09;2.30;99.90
13673;DHT22;6909;52.202;9.876;2022-11-21T08:16:36;2.30;99.90
13673;DHT22;6909;52.202;9.876;2022-11-21T08:19:04;2.60;99.90
13673;DHT22;6909;52.202;9.876;2022-11-21T08:21:31;2.50;99.90
13673;DHT22;6909;52.202;9.876;2022-11-21T08:23:58;2.40;99.90
13673;DHT22;6909;52.202;9.876;2022-11-21T08:26:24;2.50;99.90
13673;DHT22;6909;52.202;9.876;2022-11-21T08:28:51;2.60;99.90
13673;DHT22;6909;52.202;9.876;2022-11-21T08:31:18;3.10;99.90
13673;DHT22;6909;52.202;9.876;2022-11-21T08:33:45;2.90;99.90
13673;DHT22;6909;52.202;9.876;2022-11-21T08:36:13;2.70;99.90
13673;DHT22;6909;52.202;9.876;2022-11-21T08:38:39;2.60;99.90
13673;DHT22;6909;52.202;9.876;2022-11-21T08:41:06;2.40;99.90
13673;DHT22;6909;52.202;9.876;2022-11-21T08:43:50;2.20;99.90
13673;DHT22;6909;52.202;9.876;2022-11-21T08:46:17;2.10;99.90
13673;DHT22;6909;52.202;9.876;2022-11-21T08:48:44;2.00;99.90
13673;DHT22;6909;52.202;9.876;2022-11-21T08:51:10;2.10;99.90
13673;DHT22;6909;52.202;9.876;2022-11-21T08:53:38;2.00;99.90
13673;DHT22;6909;52.202;9.876;2022-11-21T08:56:05;1.90;99.90
13673;DHT22;6909;52.202;9.876;2022-11-21T08:58:32;1.90;99.90
13673;DHT22;6909;52.202;9.876;2022-11-21T09:00:59;1.90;99.90
13673;DHT22;6909;52.202;9.876;2022-11-21T09:03:27;2.00;99.90
13673;DHT22;6909;52.202;9.876;2022-11-21T09:05:56;2.10;99.90
13673;DHT22;6909;52.202;9.876;2022-11-21T09:08:23;2.10;99.90
13673;DHT22;6909;52.202;9.876;2022-11-21T09:10:51;2.00;99.90
13673;DHT22;6909;52.202;9.876;2022-11-21T09:13:18;2.00;99.90
13673;DHT22;6909;52.202;9.876;2022-11-21T09:15:45;2.00;99.90
13673;DHT22;6909;52.202;9.876;2022-11-21T09:18:29;1.90;99.90
13673;DHT22;6909;52.202;9.876;2022-11-21T09:20:56;1.90;99.90
13673;DHT22;6909;52.202;9.876;2022-11-21T09:23:23;1.90;99.90
13673;DHT22;6909;52.202;9.876;2022-11-21T09:25:49;1.90;99.90
13673;DHT22;6909;52.202;9.876;2022-11-21T09:28:18;2.10;99.90
13673;DHT22;6909;52.202;9.876;2022-11-21T09:30:44;1.90;99.90
13673;DHT22;6909;52.202;9.876;2022-11-21T09:33:12;1.80;99.90
13673;DHT22;6909;52.202;9.876;2022-11-21T09:35:41;1.80;99.90
13673;DHT22;6909;52.202;9.876;2022-11-21T09:38:08;1.90;99.90
13673;DHT22;6909;52.202;9.876;2022-11-21T09:40:35;1.80;99.90
13673;DHT22;6909;52.202;9.876;2022-11-21T09:43:10;1.60;99.90
13673;DHT22;6909;52.202;9.876;2022-11-21T09:45:46;1.60;99.90
13673;DHT22;6909;52.202;9.876;2022-11-21T09:48:18;1.60;99.90
13673;DHT22;6909;52.202;9.876;2022-11-21T09:50:50;1.50;99.90
13673;DHT22;6909;52.202;9.876;2022-11-21T09:53:21;1.40;99.90
13673;DHT22;6909;52.202;9.876;2022-11-21T09:55:50;1.70;99.90
13673;DHT22;6909;52.202;9.876;2022-11-21T09:58:24;1.80;99.90
13673;DHT22;6909;52.202;9.876;2022-11-21T10:00:54;1.90;99.90
13673;DHT22;6909;52.202;9.876;2022-11-21T10:03:23;2.00;99.90
13673;DHT22;6909;52.202;9.876;2022-11-21T10:05:53;2.00;99.90
13673;DHT22;6909;52.202;9.876;2022-11-21T10:08:28;2.10;99.90
13673;DHT22;6909;52.202;9.876;2022-11-21T10:11:09;2.00;99.90
13673;DHT22;6909;52.202;9.876;2022-11-21T10:13:45;2.10;99.90
13673;DHT22;6909;52.202;9.876;2022-11-21T10:16:21;2.20;99.90
13673;DHT22;6909;52.202;9.876;2022-11-21T10:19:12;2.20;99.90
13673;DHT22;6909;52.202;9.876;2022-11-21T10:21:56;2.20;99.90
13673;DHT22;6909;52.202;9.876;2022-11-21T10:24:34;2.10;99.90
13673;DHT22;6909;52.202;9.876;2022-11-21T10:27:06;2.30;99.90
13673;DHT22;6909;52.202;9.876;2022-11-21T10:29:39;2.70;99.90
13673;DHT22;6909;52.202;9.876;2022-11-21T10:32:14;2.70;99.90
13673;DHT22;6909;52.202;9.876;2022-11-21T10:34:45;2.80;99.90
13673;DHT22;6909;52.202;9.876;2022-11-21T10:37:17;2.60;99.90
13673;DHT22;6909;52.202;9.876;2022-11-21T10:39:48;2.70;99.90
13673;DHT22;6909;52.202;9.876;2022-11-21T10:42:27;2.60;99.90
13673;DHT22;6909;52.202;9.876;2022-11-21T10:44:59;2.70;99.90
13673;DHT22;6909;52.202;9.876;2022-11-21T10:47:47;2.80;99.90
13673;DHT22;6909;52.202;9.876;2022-11-21T10:50:39;2.20;99.90
13673;DHT22;6909;52.202;9.876;2022-11-21T10:53:14;2.30;99.90
13673;DHT22;6909;52.202;9.876;2022-11-21T10:56:00;2.50;99.90
13673;DHT22;6909;52.202;9.876;2022-11-21T10:58:40;2.10;99.90
13673;DHT22;6909;52.202;9.876;2022-11-21T11:01:25;2.10;99.90
13673;DHT22;6909;52.202;9.876;2022-11-21T11:04:17;2.20;99.90
13673;DHT22;6909;52.202;9.876;2022-11-21T11:06:46;2.40;99.90
13673;DHT22;6909;52.202;9.876;2022-11-21T11:09:23;2.10;99.90
13673;DHT22;6909;52.202;9.876;2022-11-21T11:12:18;2.00;99.90
13673;DHT22;6909;52.202;9.876;2022-11-21T11:14:49;1.70;99.90
13673;DHT22;6909;52.202;9.876;2022-11-21T11:17:25;1.50;99.90
13673;DHT22;6909;52.202;9.876;2022-11-21T11:20:00;1.60;99.90
13673;DHT22;6909;52.202;9.876;2022-11-21T11:22:28;1.70;99.90
13673;DHT22;6909;52.202;9.876;2022-11-21T11:24:55;1.60;99.90
13673;DHT22;6909;52.202;9.876;2022-11-21T11:27:26;1.70;99.90
13673;DHT22;6909;52.202;9.876;2022-11-21T11:29:53;1.80;99.90
13673;DHT22;6909;52.202;9.876;2022-11-21T11:32:20;1.90;99.90
13673;DHT22;6909;52.202;9.876;2022-11-21T11:34:56;2.00;99.90
13673;DHT22;6909;52.202;9.876;2022-11-21T11:37:31;1.40;99.90
13673;DHT22;6909;52.202;9.876;2022-11-21T11:40:13;1.20;99.90
13673;DHT22;6909;52.202;9.876;2022-11-21T11:42:57;1.00;99.90
13673;DHT22;6909;52.202;9.876;2022-11-21T11:48:58;1.20;99.90
13673;DHT22;6909;52.202;9.876;2022-11-21T11:51:34;1.10;99.90
13673;DHT22;6909;52.202;9.876;2022-11-21T11:54:09;1.20;99.90
13673;DHT22;6909;52.202;9.876;2022-11-21T11:56:38;1.20;99.90
13673;DHT22;6909;52.202;9.876;2022-11-21T11:59:12;1.30;99.90
13673;DHT22;6909;52.202;9.876;2022-11-21T12:01:41;1.40;99.90
13673;DHT22;6909;52.202;9.876;2022-11-21T12:04:12;1.40;99.90
13673;DHT22;6909;52.202;9.876;2022-11-21T12:06:44;1.40;99.90
13673;DHT22;6909;52.202;9.876;2022-11-21T12:09:21;1.60;99.90
13673;DHT22;6909;52.202;9.876;2022-11-21T12:11:53;1.80;99.90
13673;DHT22;6909;52.202;9.876;2022-11-21T12:14:55;1.80;99.90
13673;DHT22;6909;52.202;9.876;2022-11-21T12:17:44;1.90;99.90
13673;DHT22;6909;52.202;9.876;2022-11-21T12:20:18;1.90;99.90
13673;DHT22;6909;52.202;9.876;2022-11-21T12:22:49;2.00;99.90
13673;DHT22;6909;52.202;9.876;2022-11-21T12:25:23;1.90;99.90
13673;DHT22;6909;52.202;9.876;2022-11-21T12:27:52;1.70;99.90
13673;DHT22;6909;52.202;9.876;2022-11-21T12:30:32;1.70;99.90
13673;DHT22;6909;52.202;9.876;2022-11-21T12:33:04;1.70;99.90
13673;DHT22;6909;52.202;9.876;2022-11-21T12:35:44;1.70;99.90
13673;DHT22;6909;52.202;9.876;2022-11-21T12:38:25;1.70;99.90
13673;DHT22;6909;52.202;9.876;2022-11-21T12:41:05;1.50;99.90
13673;DHT22;6909;52.202;9.876;2022-11-21T12:44:04;1.40;99.90
13673;DHT22;6909;52.202;9.876;2022-11-21T12:46:42;1.30;99.90
13673;DHT22;6909;52.202;9.876;2022-11-21T12:49:22;1.20;99.90
13673;DHT22;6909;52.202;9.876;2022-11-21T12:52:14;1.20;99.90
13673;DHT22;6909;52.202;9.876;2022-11-21T12:55:11;1.10;99.90
13673;DHT22;6909;52.202;9.876;2022-11-21T13:00:42;1.20;99.90
13673;DHT22;6909;52.202;9.876;2022-11-21T13:03:26;1.10;99.90
13673;DHT22;6909;52.202;9.876;2022-11-21T13:05:55;1.10;99.90
13673;DHT22;6909;52.202;9.876;2022-11-21T13:08:25;1.20;99.90
13673;DHT22;6909;52.202;9.876;2022-11-21T13:10:57;1.10;99.90
13673;DHT22;6909;52.202;9.876;2022-11-21T13:13:45;0.90;99.90
13673;DHT22;6909;52.202;9.876;2022-11-21T13:16:18;0.90;99.90
13673;DHT22;6909;52.202;9.876;2022-11-21T13:19:03;0.80;99.90
13673;DHT22;6909;52.202;9.876;2022-11-21T13:21:40;1.00;99.90
13673;DHT22;6909;52.202;9.876;2022-11-21T13:24:07;1.00;99.90
13673;DHT22;6909;52.202;9.876;2022-11-21T13:26:54;1.00;99.90
13673;DHT22;6909;52.202;9.876;2022-11-21T13:29:22;1.00;99.90
13673;DHT22;6909;52.202;9.876;2022-11-21T13:31:49;1.00;99.90
13673;DHT22;6909;52.202;9.876;2022-11-21T13:34:36;1.10;99.90
13673;DHT22;6909;52.202;9.876;2022-11-21T13:37:04;1.30;99.90
13673;DHT22;6909;52.202;9.876;2022-11-21T13:39:35;1.40;99.90
13673;DHT22;6909;52.202;9.876;2022-11-21T13:42:06;1.30;99.90
13673;DHT22;6909;52.202;9.876;2022-11-21T13:44:53;1.30;99.90
13673;DHT22;6909;52.202;9.876;2022-11-21T13:47:45;1.30;99.90
13673;DHT22;6909;52.202;9.876;2022-11-21T13:50:26;1.20;99.90
13673;DHT22;6909;52.202;9.876;2022-11-21T13:53:02;1.30;99.90
13673;DHT22;6909;52.202;9.876;2022-11-21T13:55:54;1.20;99.90
13673;DHT22;6909;52.202;9.876;2022-11-21T13:58:32;1.10;99.90
13673;DHT22;6909;52.202;9.876;2022-11-21T14:04:28;1.00;99.90
13673;DHT22;6909;52.202;9.876;2022-11-21T14:07:20;1.00;99.90
13673;DHT22;6909;52.202;9.876;2022-11-21T14:09:48;1.00;99.90
13673;DHT22;6909;52.202;9.876;2022-11-21T14:12:21;1.00;99.90
13673;DHT22;6909;52.202;9.876;2022-11-21T14:14:51;0.80;99.90
13673;DHT22;6909;52.202;9.876;2022-11-21T14:17:30;0.70;99.90
13673;DHT22;6909;52.202;9.876;2022-11-21T14:20:06;0.60;99.90
13673;DHT22;6909;52.202;9.876;2022-11-21T14:22:38;0.50;99.90
13673;DHT22;6909;52.202;9.876;2022-11-21T14:25:07;0.50;99.90
13673;DHT22;6909;52.202;9.876;2022-11-21T14:27:37;0.40;99.90
13673;DHT22;6909;52.202;9.876;2022-11-21T14:30:05;0.40;99.90
13673;DHT22;6909;52.202;9.876;2022-11-21T14:32:33;0.40;99.90
13673;DHT22;6909;52.202;9.876;2022-11-21T14:35:08;0.40;99.90
13673;DHT22;6909;52.202;9.876;2022-11-21T14:37:38;0.40;99.90
13673;DHT22;6909;52.202;9.876;2022-11-21T14:40:10;0.40;99.90
13673;DHT22;6909;52.202;9.876;2022-11-21T14:42:37;0.40;99.90
13673;DHT22;6909;52.202;9.876;2022-11-21T14:45:13;0.40;99.90
13673;DHT22;6909;52.202;9.876;2022-11-21T14:47:47;0.30;99.90
13673;DHT22;6909;52.202;9.876;2022-11-21T14:50:22;0.30;99.90
13673;DHT22;6909;52.202;9.876;2022-11-21T14:52:49;0.10;99.90
13673;DHT22;6909;52.202;9.876;2022-11-21T14:55:23;0.10;99.90
13673;DHT22;6909;52.202;9.876;2022-11-21T14:57:51;0.00;99.90
13673;DHT22;6909;52.202;9.876;2022-11-21T15:00:20;-0.10;99.90
13673;DHT22;6909;52.202;9.876;2022-11-21T15:02:51;-0.10;99.90
13673;DHT22;6909;52.202;9.876;2022-11-21T15:05:18;-0.10;99.90
13673;DHT22;6909;52.202;9.876;2022-11-21T15:07:48;-0.20;99.90
13673;DHT22;6909;52.202;9.876;2022-11-21T15:10:16;-0.20;99.90
13673;DHT22;6909;52.202;9.876;2022-11-21T15:12:52;-0.20;99.90
13673;DHT22;6909;52.202;9.876;2022-11-21T15:15:26;-0.20;99.90
13673;DHT22;6909;52.202;9.876;2022-11-21T15:17:57;-0.30;99.90
13673;DHT22;6909;52.202;9.876;2022-11-21T15:20:25;-0.40;99.90
13673;DHT22;6909;52.202;9.876;2022-11-21T15:22:54;-0.50;99.90
13673;DHT22;6909;52.202;9.876;2022-11-21T15:25:23;-0.50;99.90
13673;DHT22;6909;52.202;9.876;2022-11-21T15:27:51;-0.60;99.90
13673;DHT22;6909;52.202;9.876;2022-11-21T15:30:23;-0.70;99.90
13673;DHT22;6909;52.202;9.876;2022-11-21T15:33:06;-0.70;99.90
13673;DHT22;6909;52.202;9.876;2022-11-21T15:35:55;-0.60;99.90
13673;DHT22;6909;52.202;9.876;2022-11-21T15:38:25;-0.70;99.90
13673;DHT22;6909;52.202;9.876;2022-11-21T15:40:56;-0.80;99.90
13673;DHT22;6909;52.202;9.876;2022-11-21T15:43:39;-0.80;99.90
13673;DHT22;6909;52.202;9.876;2022-11-21T15:46:15;-0.90;99.90
13673;DHT22;6909;52.202;9.876;2022-11-21T15:48:44;-0.90;99.90
13673;DHT22;6909;52.202;9.876;2022-11-21T15:51:11;-1.00;99.90
13673;DHT22;6909;52.202;9.876;2022-11-21T15:53:38;-1.00;99.90
13673;DHT22;6909;52.202;9.876;2022-11-21T15:56:05;-1.10;99.90
13673;DHT22;6909;52.202;9.876;2022-11-21T15:58:32;-1.00;99.90
13673;DHT22;6909;52.202;9.876;2022-11-21T16:00:59;-0.90;99.90
13673;DHT22;6909;52.202;9.876;2022-11-21T16:03:25;-0.80;99.90
13673;DHT22;6909;52.202;9.876;2022-11-21T16:05:54;-0.70;99.90
13673;DHT22;6909;52.202;9.876;2022-11-21T16:08:20;-0.60;99.90
13673;DHT22;6909;52.202;9.876;2022-11-21T16:10:47;-0.60;99.90
13673;DHT22;6909;52.202;9.876;2022-11-21T16:13:14;-0.60;99.90
13673;DHT22;6909;52.202;9.876;2022-11-21T16:15:41;-0.50;99.90
13673;DHT22;6909;52.202;9.876;2022-11-21T16:18:07;-0.50;99.90
13673;DHT22;6909;52.202;9.876;2022-11-21T16:20:34;-0.40;99.90
13673;DHT22;6909;52.202;9.876;2022-11-21T16:23:03;-0.30;99.90